Time;durP1;ratioP1;P1;durP2;ratioP2;P2;SDS_P1;SDS_P2;PMS_P1;PMS_P2;Temp;Humidity;BMP_temperature;BMP_pressure;BME280_temperature;BME280_humidity;BME280_pressure;Samples;Min_cycle;Max_cycle;Signal;HPM_P1;HPM_P2
2023/11/26 00:04:02;;;;;;;2.97;2.67;;;;;;;;;;10416202;27;20097;-57
2023/11/26 00:09:02;;;;;;;2.65;2.45;;;;;;;;;;10418965;27;20077;-57
2023/11/26 00:14:00;;;;;;;2.90;2.70;;;;;;;;;;10415089;27;20074;-55
2023/11/26 00:18:58;;;;;;;2.90;2.70;;;;;;;;;;10416850;27;20086;-55
2023/11/26 00:23:58;;;;;;;2.92;2.72;;;;;;;;;;10414866;27;20520;-54
2023/11/26 00:28:56;;;;;;;2.70;2.50;;;;;;;;;;10416465;27;20082;-55
2023/11/26 00:33:55;;;;;;;3.40;2.95;;;;;;;;;;10412887;27;20070;-54
2023/11/26 00:38:53;;;;;;;6.15;1.90;;;;;;;;;;10415424;27;20163;-58
2023/11/26 00:43:52;;;;;;;3.05;2.75;;;;;;;;;;10415215;27;20075;-58
2023/11/26 00:48:51;;;;;;;2.60;2.40;;;;;;;;;;10415239;28;20086;-55
2023/11/26 00:53:50;;;;;;;2.28;2.10;;;;;;;;;;10395875;28;20480;-56
2023/11/26 00:58:48;;;;;;;2.13;2.03;;;;;;;;;;10416894;28;20075;-55
2023/11/26 01:03:47;;;;;;;3.35;2.88;;;;;;;;;;10416081;28;20075;-57
2023/11/26 01:08:46;;;;;;;2.53;2.33;;;;;;;;;;10415228;28;20066;-57
2023/11/26 01:13:44;;;;;;;2.30;2.10;;;;;;;;;;10413375;28;20074;-56
2023/11/26 01:18:42;;;;;;;2.50;2.30;;;;;;;;;;10415516;28;20059;-55
2023/11/26 01:23:42;;;;;;;2.33;2.13;;;;;;;;;;10414193;28;20069;-56
2023/11/26 01:28:40;;;;;;;2.92;2.72;;;;;;;;;;10414056;28;20070;-56
2023/11/26 01:33:39;;;;;;;3.00;2.70;;;;;;;;;;10391149;28;20078;-56
2023/11/26 01:38:37;;;;;;;3.53;2.22;;;;;;;;;;10408509;28;20040;-56
2023/11/26 01:43:37;;;;;;;7.78;4.55;;;;;;;;;;10417441;27;20081;-53
2023/11/26 01:48:36;;;;;;;8.43;6.32;;;;;;;;;;10416769;27;20543;-55
2023/11/26 01:53:36;;;;;;;6.65;5.60;;;;;;;;;;10421402;27;20067;-56
2023/11/26 01:58:35;;;;;;;3.42;3.13;;;;;;;;;;10401628;27;20448;-54
2023/11/26 02:03:35;;;;;;;2.92;2.72;;;;;;;;;;10423460;27;20062;-52
2023/11/26 02:08:34;;;;;;;3.85;3.50;;;;;;;;;;10424778;27;20063;-51
2023/11/26 02:13:32;;;;;;;3.17;2.88;;;;;;;;;;10423074;27;20180;-53
2023/11/26 02:18:30;;;;;;;2.92;2.72;;;;;;;;;;10401378;27;20079;-51
2023/11/26 02:23:33;;;;;;;2.72;2.53;;;;;;;;;;10425588;27;20070;-54
2023/11/26 02:28:33;;;;;;;2.60;2.40;;;;;;;;;;10416077;27;20083;-56
2023/11/26 02:33:32;;;;;;;3.17;2.30;;;;;;;;;;10419590;27;20146;-54
2023/11/26 02:38:51;;;;;;;2.17;2.08;;;;;;;;;;10417111;27;20079;-56
2023/11/26 02:43:51;;;;;;;2.50;2.30;;;;;;;;;;10422111;27;20090;-51
2023/11/26 02:48:49;;;;;;;2.75;2.55;;;;;;;;;;10418497;27;20078;-55
2023/11/26 02:53:47;;;;;;;2.55;2.30;;;;;;;;;;10399562;27;20055;-52
2023/11/26 02:58:46;;;;;;;3.40;3.10;;;;;;;;;;10399522;27;20106;-55
2023/11/26 03:03:47;;;;;;;2.70;2.50;;;;;;;;;;10415050;27;20067;-57
2023/11/26 03:08:46;;;;;;;4.18;3.33;;;;;;;;;;10417952;27;20083;-55
2023/11/26 03:13:46;;;;;;;4.65;4.25;;;;;;;;;;10418660;27;20066;-57
2023/11/26 03:18:49;;;;;;;5.82;5.22;;;;;;;;;;10415265;27;20085;-55
2023/11/26 03:23:47;;;;;;;6.28;4.90;;;;;;;;;;10417859;27;20085;-56
2023/11/26 03:28:45;;;;;;;43.65;21.25;;;;;;;;;;10418448;27;20499;-57
2023/11/26 03:33:43;;;;;;;9.20;8.30;;;;;;;;;;10418555;27;20063;-53
2023/11/26 03:38:44;;;;;;;10.30;9.40;;;;;;;;;;10417113;27;20059;-55
2023/11/26 03:43:43;;;;;;;3.80;3.50;;;;;;;;;;10416500;27;20479;-54
2023/11/26 03:48:45;;;;;;;5.97;5.38;;;;;;;;;;10415934;27;20055;-56
2023/11/26 03:53:45;;;;;;;4.35;3.95;;;;;;;;;;10416577;27;20508;-56
2023/11/26 03:58:43;;;;;;;3.80;3.50;;;;;;;;;;10416650;27;20083;-57
2023/11/26 04:03:43;;;;;;;2.95;2.75;;;;;;;;;;10415525;27;20546;-56
2023/11/26 04:08:42;;;;;;;3.25;2.95;;;;;;;;;;10411562;27;20079;-57
2023/11/26 04:13:41;;;;;;;3.45;3.00;;;;;;;;;;10402113;27;20071;-54
2023/11/26 04:18:39;;;;;;;21.58;5.75;;;;;;;;;;10416555;27;20093;-56
2023/11/26 04:23:38;;;;;;;72.78;7.95;;;;;;;;;;10417437;27;20073;-56
2023/11/26 04:28:36;;;;;;;105.20;12.05;;;;;;;;;;10416874;27;20066;-57
2023/11/26 04:33:36;;;;;;;56.30;7.68;;;;;;;;;;10415284;27;20097;-56
2023/11/26 04:38:34;;;;;;;14.18;6.00;;;;;;;;;;10417917;27;20085;-56
2023/11/26 04:43:32;;;;;;;54.50;8.35;;;;;;;;;;10414700;27;20106;-57
2023/11/26 04:48:30;;;;;;;13.23;4.68;;;;;;;;;;10419061;28;20063;-58
2023/11/26 04:53:30;;;;;;;9.55;7.43;;;;;;;;;;10412827;28;20074;-57
2023/11/26 04:58:28;;;;;;;7.20;4.72;;;;;;;;;;10416413;28;20157;-56
2023/11/26 05:03:26;;;;;;;5.97;4.20;;;;;;;;;;10412267;28;20067;-57
2023/11/26 05:08:24;;;;;;;3.95;3.55;;;;;;;;;;10406327;28;20070;-57
2023/11/26 05:13:24;;;;;;;6.07;4.70;;;;;;;;;;10408050;28;20464;-55
2023/11/26 05:18:23;;;;;;;3.20;2.90;;;;;;;;;;10410010;27;20063;-54
2023/11/26 05:23:21;;;;;;;5.32;4.90;;;;;;;;;;10419289;27;20081;-56
2023/11/26 05:28:19;;;;;;;4.68;4.22;;;;;;;;;;10419977;27;20080;-56
2023/11/26 05:33:19;;;;;;;19.80;17.70;;;;;;;;;;10425518;27;20511;-56
2023/11/26 05:38:17;;;;;;;6.05;5.55;;;;;;;;;;10420717;27;20094;-55
2023/11/26 05:43:16;;;;;;;6.38;5.85;;;;;;;;;;10421743;27;20067;-55
2023/11/26 05:48:14;;;;;;;35.42;8.85;;;;;;;;;;10419966;27;20123;-55
2023/11/26 05:53:13;;;;;;;38.33;10.68;;;;;;;;;;10425655;27;20106;-55
2023/11/26 05:58:12;;;;;;;7.47;5.38;;;;;;;;;;10420852;27;20097;-56
2023/11/26 06:03:10;;;;;;;102.07;15.75;;;;;;;;;;10421275;27;20075;-56
2023/11/26 06:08:09;;;;;;;63.35;19.20;;;;;;;;;;10420331;27;20473;-55
2023/11/26 06:13:09;;;;;;;6.60;5.05;;;;;;;;;;10421427;27;20773;-53
2023/11/26 06:18:07;;;;;;;16.75;6.97;;;;;;;;;;10403794;27;20095;-52
2023/11/26 06:23:08;;;;;;;15.38;6.20;;;;;;;;;;10421058;27;20082;-51
2023/11/26 06:28:06;;;;;;;77.43;10.75;;;;;;;;;;10422391;27;20059;-53
2023/11/26 06:33:06;;;;;;;17.85;7.38;;;;;;;;;;10424391;27;20507;-50
2023/11/26 06:38:05;;;;;;;21.40;7.55;;;;;;;;;;10424556;27;20074;-55
2023/11/26 06:43:03;;;;;;;8.30;7.30;;;;;;;;;;10421094;27;20071;-54
2023/11/26 06:48:01;;;;;;;10.57;9.48;;;;;;;;;;10420731;27;20066;-54
2023/11/26 06:53:01;;;;;;;18.77;8.10;;;;;;;;;;10422404;27;20070;-54
2023/11/26 06:57:59;;;;;;;19.42;15.80;;;;;;;;;;10421724;27;20082;-55
2023/11/26 07:02:58;;;;;;;47.08;10.88;;;;;;;;;;10419486;27;20078;-53
2023/11/26 07:07:57;;;;;;;23.83;9.02;;;;;;;;;;10426111;27;20074;-54
2023/11/26 07:12:57;;;;;;;12.18;8.98;;;;;;;;;;10421566;27;20075;-54
2023/11/26 07:17:55;;;;;;;77.53;10.05;;;;;;;;;;10421052;27;20073;-56
2023/11/26 07:22:53;;;;;;;64.63;13.65;;;;;;;;;;10418366;27;20075;-56
2023/11/26 07:27:51;;;;;;;8.32;7.50;;;;;;;;;;10419839;27;20689;-55
2023/11/26 07:32:51;;;;;;;29.27;14.35;;;;;;;;;;10418661;27;20083;-55
2023/11/26 07:37:50;;;;;;;13.32;8.23;;;;;;;;;;10418687;27;20077;-53
2023/11/26 07:42:49;;;;;;;78.43;13.75;;;;;;;;;;10419286;27;20067;-55
2023/11/26 07:47:48;;;;;;;25.60;15.02;;;;;;;;;;10420123;27;20082;-54
2023/11/26 07:52:48;;;;;;;11.77;9.27;;;;;;;;;;10416497;27;20079;-57
2023/11/26 07:57:46;;;;;;;12.23;10.90;;;;;;;;;;10416767;27;20465;-55
2023/11/26 08:02:46;;;;;;;13.23;11.93;;;;;;;;;;10420978;27;20074;-54
2023/11/26 08:07:45;;;;;;;13.77;12.43;;;;;;;;;;10416794;27;20066;-55
2023/11/26 08:12:46;;;;;;;13.43;11.90;;;;;;;;;;10417561;27;20071;-53
2023/11/26 08:17:48;;;;;;;13.88;10.65;;;;;;;;;;10416332;27;20063;-48
2023/11/26 08:22:46;;;;;;;32.10;24.80;;;;;;;;;;10419901;27;20098;-54
2023/11/26 08:27:48;;;;;;;25.83;21.17;;;;;;;;;;10418415;27;20070;-55
2023/11/26 08:32:49;;;;;;;14.15;12.65;;;;;;;;;;10416006;27;20067;-55
2023/11/26 08:37:47;;;;;;;12.05;10.85;;;;;;;;;;10414641;27;20093;-56
2023/11/26 08:42:47;;;;;;;29.08;21.58;;;;;;;;;;10414526;27;20074;-55
2023/11/26 08:47:47;;;;;;;23.55;17.38;;;;;;;;;;10415127;27;20487;-55
2023/11/26 08:52:46;;;;;;;13.57;11.32;;;;;;;;;;10417880;27;20066;-54
2023/11/26 08:57:45;;;;;;;35.85;24.30;;;;;;;;;;10424301;27;20516;-56
2023/11/26 09:02:44;;;;;;;17.58;14.38;;;;;;;;;;10425091;27;20531;-56
2023/11/26 09:07:44;;;;;;;12.55;9.88;;;;;;;;;;10424100;27;20059;-56
2023/11/26 09:12:42;;;;;;;15.75;13.57;;;;;;;;;;10422304;27;20078;-54
2023/11/26 09:17:41;;;;;;;16.35;14.63;;;;;;;;;;10417519;27;20067;-53
2023/11/26 09:22:41;;;;;;;15.73;13.65;;;;;;;;;;10421371;27;20075;-55
2023/11/26 09:27:40;;;;;;;20.42;17.95;;;;;;;;;;10421033;27;20052;-55
2023/11/26 09:32:38;;;;;;;16.50;14.60;;;;;;;;;;10418544;27;20151;-55
2023/11/26 09:37:37;;;;;;;28.13;21.50;;;;;;;;;;10418682;27;20075;-56
2023/11/26 09:42:36;;;;;;;25.38;20.42;;;;;;;;;;10420446;27;20068;-56
2023/11/26 09:47:34;;;;;;;18.25;14.23;;;;;;;;;;10422105;27;20071;-56
2023/11/26 09:52:33;;;;;;;44.08;34.20;;;;;;;;;;10419472;27;20520;-55
2023/11/26 09:57:33;;;;;;;8.35;7.55;;;;;;;;;;10421711;27;20445;-53
2023/11/26 10:02:32;;;;;;;9.50;8.60;;;;;;;;;;10420849;27;20063;-55
2023/11/26 10:07:35;;;;;;;11.50;8.80;;;;;;;;;;10421567;27;20070;-54
2023/11/26 10:12:49;;;;;;;14.85;13.13;;;;;;;;;;10421016;27;20078;-53
2023/11/26 10:18:00;;;;;;;14.75;11.18;;;;;;;;;;10420723;27;20071;-57
2023/11/26 10:22:58;;;;;;;10.02;8.50;;;;;;;;;;10420430;27;20067;-58
2023/11/26 10:27:56;;;;;;;9.68;8.60;;;;;;;;;;10413272;27;20082;-52
2023/11/26 10:32:56;;;;;;;8.85;7.95;;;;;;;;;;10415134;27;20087;-52
2023/11/26 10:38:09;;;;;;;14.88;12.32;;;;;;;;;;10420572;27;20087;-53
2023/11/26 10:43:09;;;;;;;44.15;23.88;;;;;;;;;;10417170;27;20078;-56
2023/11/26 10:48:09;;;;;;;39.25;20.95;;;;;;;;;;10426876;27;20070;-51
2023/11/26 10:53:15;;;;;;;11.95;10.63;;;;;;;;;;10431973;27;20085;-55
2023/11/26 10:58:18;;;;;;;13.07;10.75;;;;;;;;;;10433013;27;20546;-56
2023/11/26 11:03:17;;;;;;;22.15;19.02;;;;;;;;;;10430756;27;20540;-55
2023/11/26 11:08:17;;;;;;;13.07;11.48;;;;;;;;;;10431151;27;20081;-57
2023/11/26 11:13:16;;;;;;;13.95;12.02;;;;;;;;;;10431323;27;20082;-56
2023/11/26 11:18:33;;;;;;;11.68;10.48;;;;;;;;;;10424300;27;20063;-56
2023/11/26 11:23:33;;;;;;;8.15;6.72;;;;;;;;;;10425703;27;20059;-55
2023/11/26 11:28:38;;;;;;;12.60;9.20;;;;;;;;;;10429200;27;20063;-57
2023/11/26 11:33:36;;;;;;;11.02;8.23;;;;;;;;;;10423397;27;20081;-56
2023/11/26 11:38:58;;;;;;;10.52;8.13;;;;;;;;;;10432738;27;20079;-57
2023/11/26 11:44:24;;;;;;;11.73;9.38;;;;;;;;;;10429662;27;20434;-57
2023/11/26 11:49:22;;;;;;;12.50;10.07;;;;;;;;;;10430844;27;20067;-55
2023/11/26 11:54:32;;;;;;;12.32;9.77;;;;;;;;;;10431633;27;20069;-56
2023/11/26 11:59:31;;;;;;;15.80;10.30;;;;;;;;;;10432016;27;20079;-55
2023/11/26 12:04:39;;;;;;;19.02;15.93;;;;;;;;;;10428438;27;20082;-57
2023/11/26 12:09:40;;;;;;;20.58;14.90;;;;;;;;;;10424844;27;20468;-56
2023/11/26 12:14:38;;;;;;;14.90;13.35;;;;;;;;;;10425928;27;20067;-56
2023/11/26 12:19:39;;;;;;;17.27;13.57;;;;;;;;;;10425890;27;20079;-56
2023/11/26 12:24:38;;;;;;;13.90;10.95;;;;;;;;;;10426585;27;20059;-56
2023/11/26 12:29:38;;;;;;;10.65;9.05;;;;;;;;;;10423106;27;20078;-57
2023/11/26 12:34:38;;;;;;;15.57;12.07;;;;;;;;;;10423780;27;20070;-56
2023/11/26 12:39:38;;;;;;;15.75;12.63;;;;;;;;;;10423502;27;20082;-53
2023/11/26 12:44:38;;;;;;;29.70;19.55;;;;;;;;;;10425539;27;20062;-57
2023/11/26 12:49:37;;;;;;;22.23;15.48;;;;;;;;;;10425891;27;20059;-53
2023/11/26 12:54:35;;;;;;;23.55;15.60;;;;;;;;;;10424871;28;20062;-56
2023/11/26 12:59:46;;;;;;;34.38;20.30;;;;;;;;;;10428629;28;20087;-55
2023/11/26 13:04:44;;;;;;;32.25;18.58;;;;;;;;;;10429108;28;20078;-51
2023/11/26 13:09:48;;;;;;;26.55;15.35;;;;;;;;;;10422941;28;20067;-55
2023/11/26 13:14:49;;;;;;;29.37;15.77;;;;;;;;;;10425097;28;20081;-56
2023/11/26 13:19:49;;;;;;;45.33;31.52;;;;;;;;;;10421133;28;20459;-55
2023/11/26 13:24:47;;;;;;;21.38;15.35;;;;;;;;;;10420921;28;20067;-54
2023/11/26 13:29:46;;;;;;;25.98;16.20;;;;;;;;;;10413564;28;20082;-57
2023/11/26 13:34:45;;;;;;;15.43;12.07;;;;;;;;;;10413490;28;20511;-54
2023/11/26 13:39:44;;;;;;;20.92;15.82;;;;;;;;;;10406738;27;20078;-56
2023/11/26 13:44:42;;;;;;;19.20;15.00;;;;;;;;;;10422203;27;20484;-56
2023/11/26 13:49:40;;;;;;;28.55;18.73;;;;;;;;;;10419525;27;20059;-55
2023/11/26 13:54:40;;;;;;;38.00;24.08;;;;;;;;;;10422078;27;20086;-55
2023/11/26 13:59:38;;;;;;;22.40;12.55;;;;;;;;;;10423822;27;20079;-56
2023/11/26 14:04:36;;;;;;;22.55;16.98;;;;;;;;;;10421991;27;20478;-50
2023/11/26 14:09:34;;;;;;;28.67;18.73;;;;;;;;;;10421261;27;20074;-54
2023/11/26 14:14:34;;;;;;;23.33;16.65;;;;;;;;;;10423760;27;20071;-57
2023/11/26 14:19:32;;;;;;;19.58;16.92;;;;;;;;;;10423222;27;20063;-54
2023/11/26 14:24:30;;;;;;;16.75;14.68;;;;;;;;;;10421135;27;20075;-56
2023/11/26 14:29:29;;;;;;;21.85;16.83;;;;;;;;;;10422534;27;20475;-56
2023/11/26 14:34:28;;;;;;;28.63;21.60;;;;;;;;;;10421077;27;20071;-58
2023/11/26 14:39:26;;;;;;;13.65;11.80;;;;;;;;;;10420760;27;20086;-58
2023/11/26 14:44:25;;;;;;;12.45;11.02;;;;;;;;;;10420930;27;20071;-54
2023/11/26 14:49:23;;;;;;;10.35;8.52;;;;;;;;;;10419818;27;20453;-56
2023/11/26 14:54:22;;;;;;;13.07;9.82;;;;;;;;;;10419321;27;20520;-56
2023/11/26 14:59:21;;;;;;;14.57;10.07;;;;;;;;;;10420573;27;20082;-57
2023/11/26 15:04:19;;;;;;;14.43;10.10;;;;;;;;;;10418988;27;20099;-54
2023/11/26 15:09:19;;;;;;;15.98;10.45;;;;;;;;;;10418493;27;20067;-55
2023/11/26 15:14:19;;;;;;;12.73;10.68;;;;;;;;;;10422016;27;20082;-55
2023/11/26 15:19:17;;;;;;;11.40;9.82;;;;;;;;;;10418019;27;20077;-55
2023/11/26 15:24:15;;;;;;;11.80;10.55;;;;;;;;;;10419479;27;20473;-57
2023/11/26 15:29:14;;;;;;;16.73;13.55;;;;;;;;;;10418820;27;20461;-55
2023/11/26 15:34:13;;;;;;;22.38;14.00;;;;;;;;;;10418368;27;20074;-56
2023/11/26 15:39:16;;;;;;;42.15;25.13;;;;;;;;;;10413676;27;20059;-57
2023/11/26 15:44:14;;;;;;;21.55;14.80;;;;;;;;;;10419485;27;20066;-55
2023/11/26 15:49:14;;;;;;;16.00;14.30;;;;;;;;;;10413176;27;20067;-56
2023/11/26 15:54:13;;;;;;;23.02;18.25;;;;;;;;;;10415066;27;20079;-56
2023/11/26 15:59:11;;;;;;;17.95;15.70;;;;;;;;;;10416967;27;20082;-55
2023/11/26 16:04:09;;;;;;;31.88;26.98;;;;;;;;;;10415922;27;20085;-55
2023/11/26 16:09:10;;;;;;;25.40;22.75;;;;;;;;;;10416894;27;20089;-55
2023/11/26 16:14:08;;;;;;;16.88;12.75;;;;;;;;;;10416514;27;20102;-56
2023/11/26 16:19:06;;;;;;;10.27;9.00;;;;;;;;;;10418829;27;20062;-55
2023/11/26 16:24:05;;;;;;;16.60;11.23;;;;;;;;;;10415497;27;20073;-56
2023/11/26 16:29:06;;;;;;;23.45;19.48;;;;;;;;;;10414559;27;20078;-55
2023/11/26 16:34:05;;;;;;;20.92;18.50;;;;;;;;;;10416752;27;20086;-54
2023/11/26 16:39:08;;;;;;;11.43;9.35;;;;;;;;;;10416331;27;20074;-54
2023/11/26 16:44:08;;;;;;;11.95;9.43;;;;;;;;;;10417451;27;20067;-58
2023/11/26 16:49:07;;;;;;;9.65;7.47;;;;;;;;;;10414662;27;20066;-58
2023/11/26 16:54:05;;;;;;;9.32;6.82;;;;;;;;;;10418044;27;20079;-54
2023/11/26 16:59:04;;;;;;;15.50;12.15;;;;;;;;;;10414543;28;20355;-57
2023/11/26 17:04:05;;;;;;;11.75;9.70;;;;;;;;;;10416774;28;20063;-58
2023/11/26 17:09:03;;;;;;;8.27;6.30;;;;;;;;;;10416263;28;20106;-56
2023/11/26 17:14:01;;;;;;;8.57;7.68;;;;;;;;;;10417695;27;20083;-56
2023/11/26 17:19:02;;;;;;;7.65;6.20;;;;;;;;;;10424969;27;20085;-55
2023/11/26 17:24:02;;;;;;;8.02;6.75;;;;;;;;;;10423551;27;20066;-55
2023/11/26 17:29:00;;;;;;;9.40;6.47;;;;;;;;;;10423015;27;20074;-55
2023/11/26 17:33:58;;;;;;;9.38;6.28;;;;;;;;;;10424750;27;20073;-55
2023/11/26 17:38:57;;;;;;;10.52;7.95;;;;;;;;;;10417560;27;20074;-57
2023/11/26 17:43:56;;;;;;;8.65;7.18;;;;;;;;;;10432455;27;20063;-56
2023/11/26 17:48:55;;;;;;;5.13;4.63;;;;;;;;;;10434159;27;20535;-55
2023/11/26 17:53:53;;;;;;;17.45;13.40;;;;;;;;;;10434889;27;20070;-55
2023/11/26 17:58:51;;;;;;;12.35;9.32;;;;;;;;;;10434565;27;20072;-55
2023/11/26 18:03:51;;;;;;;19.60;12.00;;;;;;;;;;10434986;27;20538;-54
2023/11/26 18:08:53;;;;;;;10.95;9.48;;;;;;;;;;10433395;27;20070;-55
2023/11/26 18:13:55;;;;;;;5.28;4.78;;;;;;;;;;10429372;27;20574;-56
2023/11/26 18:18:54;;;;;;;10.35;7.55;;;;;;;;;;10432248;27;20082;-56
2023/11/26 18:23:52;;;;;;;9.18;6.22;;;;;;;;;;10432451;27;20078;-53
2023/11/26 18:28:51;;;;;;;14.38;9.38;;;;;;;;;;10433642;27;20074;-57
2023/11/26 18:33:51;;;;;;;10.55;6.57;;;;;;;;;;10430607;27;20070;-56
2023/11/26 18:38:50;;;;;;;5.65;5.13;;;;;;;;;;10431072;27;20081;-55
2023/11/26 18:43:49;;;;;;;5.90;5.30;;;;;;;;;;10431421;27;20083;-57
2023/11/26 18:48:47;;;;;;;9.10;6.90;;;;;;;;;;10432071;27;20078;-57
2023/11/26 18:53:45;;;;;;;6.85;5.60;;;;;;;;;;10430298;27;20078;-56
2023/11/26 18:58:45;;;;;;;10.52;8.63;;;;;;;;;;10432375;27;20078;-54
2023/11/26 19:03:43;;;;;;;9.57;7.78;;;;;;;;;;10432426;27;20070;-56
2023/11/26 19:08:42;;;;;;;10.38;5.95;;;;;;;;;;10431180;27;20077;-56
2023/11/26 19:13:41;;;;;;;9.48;6.97;;;;;;;;;;10431894;27;20063;-56
2023/11/26 19:18:42;;;;;;;9.52;7.55;;;;;;;;;;10429687;27;20077;-56
2023/11/26 19:23:41;;;;;;;11.68;9.05;;;;;;;;;;10431572;27;20081;-57
2023/11/26 19:28:40;;;;;;;8.93;7.55;;;;;;;;;;10428419;27;20069;-57
2023/11/26 19:33:38;;;;;;;12.75;8.27;;;;;;;;;;10426716;27;20071;-57
2023/11/26 19:38:38;;;;;;;9.65;7.97;;;;;;;;;;10428228;27;20077;-56
2023/11/26 19:43:39;;;;;;;8.32;7.45;;;;;;;;;;10428295;27;20067;-55
2023/11/26 19:48:38;;;;;;;12.27;7.97;;;;;;;;;;10428513;27;20086;-54
2023/11/26 19:53:38;;;;;;;7.22;6.50;;;;;;;;;;10429900;27;20074;-54
2023/11/26 19:58:36;;;;;;;9.77;7.00;;;;;;;;;;10425816;27;20089;-53
2023/11/26 20:03:35;;;;;;;19.70;14.43;;;;;;;;;;10426191;27;20530;-56
2023/11/26 20:08:33;;;;;;;8.43;7.55;;;;;;;;;;10430676;27;20055;-56
2023/11/26 20:13:35;;;;;;;20.10;12.55;;;;;;;;;;10425129;27;20075;-54
2023/11/26 20:18:34;;;;;;;20.48;12.90;;;;;;;;;;10428846;27;20093;-55
2023/11/26 20:23:32;;;;;;;29.30;16.55;;;;;;;;;;10427415;27;20078;-52
2023/11/26 20:28:31;;;;;;;22.02;15.32;;;;;;;;;;10428918;27;20090;-57
2023/11/26 20:33:30;;;;;;;26.38;15.57;;;;;;;;;;10426863;27;20082;-57
2023/11/26 20:38:28;;;;;;;22.27;14.15;;;;;;;;;;10424144;27;20070;-60
2023/11/26 20:43:27;;;;;;;29.88;15.68;;;;;;;;;;10424593;27;20074;-58
2023/11/26 20:48:25;;;;;;;16.13;11.05;;;;;;;;;;10425915;27;20071;-56
2023/11/26 20:53:24;;;;;;;28.33;15.80;;;;;;;;;;10425620;27;20081;-57
2023/11/26 20:58:23;;;;;;;28.75;16.33;;;;;;;;;;10426424;28;20078;-55
2023/11/26 21:03:25;;;;;;;14.75;10.52;;;;;;;;;;10429183;27;20367;-55
2023/11/26 21:08:25;;;;;;;19.98;10.45;;;;;;;;;;10426846;28;20067;-57
2023/11/26 21:13:23;;;;;;;47.97;24.25;;;;;;;;;;10428138;28;20086;-56
2023/11/26 21:18:22;;;;;;;19.45;11.98;;;;;;;;;;10429400;28;20074;-57
2023/11/26 21:23:20;;;;;;;37.10;19.10;;;;;;;;;;10428856;28;20492;-57
2023/11/26 21:28:20;;;;;;;28.83;15.23;;;;;;;;;;10423393;28;20059;-55
2023/11/26 21:33:18;;;;;;;30.30;17.02;;;;;;;;;;10408828;28;20079;-56
2023/11/26 21:38:16;;;;;;;36.55;18.90;;;;;;;;;;10405936;28;20083;-54
2023/11/26 21:43:14;;;;;;;23.67;13.05;;;;;;;;;;10409130;28;20074;-55
2023/11/26 21:48:20;;;;;;;61.15;25.58;;;;;;;;;;10413373;28;20062;-57
2023/11/26 21:53:18;;;;;;;25.35;14.15;;;;;;;;;;10414668;28;20085;-57
2023/11/26 21:58:17;;;;;;;32.83;15.52;;;;;;;;;;10413069;28;20098;-57
2023/11/26 22:03:15;;;;;;;43.30;22.52;;;;;;;;;;10420225;27;20078;-55
2023/11/26 22:08:18;;;;;;;57.78;26.08;;;;;;;;;;10422374;27;20078;-56
2023/11/26 22:13:16;;;;;;;25.70;13.68;;;;;;;;;;10419798;27;20079;-56
2023/11/26 22:18:15;;;;;;;31.05;17.85;;;;;;;;;;10421030;27;20075;-54
2023/11/26 22:23:13;;;;;;;30.92;17.08;;;;;;;;;;10413481;27;20463;-55
2023/11/26 22:28:28;;;;;;;28.88;17.17;;;;;;;;;;10420818;27;20067;-55
2023/11/26 22:33:28;;;;;;;21.38;15.18;;;;;;;;;;10420315;27;20059;-56
2023/11/26 22:38:26;;;;;;;15.48;11.13;;;;;;;;;;10421486;27;20508;-56
2023/11/26 22:43:25;;;;;;;11.48;9.23;;;;;;;;;;10420826;27;20074;-56
2023/11/26 22:48:24;;;;;;;16.05;10.30;;;;;;;;;;10418728;27;20078;-56
2023/11/26 22:53:22;;;;;;;13.25;9.55;;;;;;;;;;10419564;27;20083;-56
2023/11/26 22:58:21;;;;;;;12.00;8.55;;;;;;;;;;10417800;27;20090;-56
2023/11/26 23:03:19;;;;;;;9.93;8.52;;;;;;;;;;10419921;27;20142;-55
2023/11/26 23:08:20;;;;;;;16.80;11.45;;;;;;;;;;10419820;27;20071;-54
2023/11/26 23:13:19;;;;;;;8.88;7.68;;;;;;;;;;10418053;27;20428;-56
2023/11/26 23:18:20;;;;;;;12.88;8.98;;;;;;;;;;10415762;27;20102;-54
2023/11/26 23:23:19;;;;;;;7.05;6.38;;;;;;;;;;10417647;27;20071;-56
2023/11/26 23:28:37;;;;;;;11.50;7.93;;;;;;;;;;10417993;27;20063;-56
2023/11/26 23:33:35;;;;;;;9.05;7.60;;;;;;;;;;10417600;27;20073;-53
2023/11/26 23:38:34;;;;;;;14.65;10.27;;;;;;;;;;10418617;27;20070;-53
2023/11/26 23:43:33;;;;;;;10.90;8.15;;;;;;;;;;10416285;27;20075;-54
2023/11/26 23:48:36;;;;;;;6.57;5.82;;;;;;;;;;10416941;27;20070;-56
2023/11/26 23:53:35;;;;;;;6.32;5.72;;;;;;;;;;10417617;27;20067;-56
2023/11/26 23:58:33;;;;;;;6.88;6.18;;;;;;;;;;10416664;27;20075;-56
